sensor_id;sensor_type;location;lat;lon;timestamp;pressure;altitude;pressure_sealevel;temperature;humidity
74230;BME280;62589;12.568;99.958;2023-01-01T00:01:14;101397.38;;;29.92;44.72
74230;BME280;62589;12.568;99.958;2023-01-01T00:03:41;101400.16;;;29.92;44.76
74230;BME280;62589;12.568;99.958;2023-01-01T00:06:10;101402.91;;;29.92;44.79
74230;BME280;62589;12.568;99.958;2023-01-01T00:08:37;101397.00;;;29.93;44.30
74230;BME280;62589;12.568;99.958;2023-01-01T00:11:06;101404.53;;;29.93;44.86
74230;BME280;62589;12.568;99.958;2023-01-01T00:13:34;101407.72;;;29.95;44.60
74230;BME280;62589;12.568;99.958;2023-01-01T00:16:19;101402.78;;;30.00;44.78
74230;BME280;62589;12.568;99.958;2023-01-01T00:18:45;101407.97;;;30.02;44.78
74230;BME280;62589;12.568;99.958;2023-01-01T00:21:13;101410.38;;;30.03;44.31
74230;BME280;62589;12.568;99.958;2023-01-01T00:23:39;101421.56;;;30.07;44.57
74230;BME280;62589;12.568;99.958;2023-01-01T00:26:11;101421.66;;;30.11;44.46
74230;BME280;62589;12.568;99.958;2023-01-01T00:28:39;101423.44;;;30.19;44.60
74230;BME280;62589;12.568;99.958;2023-01-01T00:31:07;101423.56;;;30.22;45.14
74230;BME280;62589;12.568;99.958;2023-01-01T00:33:34;101434.03;;;30.29;44.59
74230;BME280;62589;12.568;99.958;2023-01-01T00:36:11;101434.59;;;30.34;44.62
74230;BME280;62589;12.568;99.958;2023-01-01T00:38:38;101439.47;;;30.41;44.57
74230;BME280;62589;12.568;99.958;2023-01-01T00:41:05;101440.13;;;30.50;44.00
74230;BME280;62589;12.568;99.958;2023-01-01T00:43:31;101441.94;;;30.58;43.84
74230;BME280;62589;12.568;99.958;2023-01-01T00:45:58;101446.88;;;30.65;43.79
74230;BME280;62589;12.568;99.958;2023-01-01T00:48:24;101454.22;;;30.73;43.69
74230;BME280;62589;12.568;99.958;2023-01-01T00:50:52;101450.91;;;30.83;43.50
74230;BME280;62589;12.568;99.958;2023-01-01T00:53:20;101464.06;;;30.86;43.36
74230;BME280;62589;12.568;99.958;2023-01-01T00:55:48;101463.06;;;30.94;43.17
74230;BME280;62589;12.568;99.958;2023-01-01T00:58:15;101463.31;;;31.05;43.24
74230;BME280;62589;12.568;99.958;2023-01-01T01:00:42;101458.00;;;31.12;43.37
74230;BME280;62589;12.568;99.958;2023-01-01T01:03:13;101464.94;;;31.22;42.94
74230;BME280;62589;12.568;99.958;2023-01-01T01:06:07;101472.00;;;31.35;42.30
74230;BME280;62589;12.568;99.958;2023-01-01T01:08:35;101470.09;;;31.39;42.52
74230;BME280;62589;12.568;99.958;2023-01-01T01:11:15;101479.03;;;31.48;42.24
74230;BME280;62589;12.568;99.958;2023-01-01T01:13:43;101481.97;;;31.55;41.98
74230;BME280;62589;12.568;99.958;2023-01-01T01:16:17;101486.16;;;31.65;41.56
74230;BME280;62589;12.568;99.958;2023-01-01T01:18:45;101497.91;;;31.74;41.15
74230;BME280;62589;12.568;99.958;2023-01-01T01:21:16;101497.16;;;31.77;40.89
74230;BME280;62589;12.568;99.958;2023-01-01T01:23:43;101505.28;;;31.86;41.02
74230;BME280;62589;12.568;99.958;2023-01-01T01:26:12;101513.47;;;31.98;40.65
74230;BME280;62589;12.568;99.958;2023-01-01T01:28:39;101512.44;;;32.06;40.94
74230;BME280;62589;12.568;99.958;2023-01-01T01:31:06;101504.72;;;32.15;40.85
74230;BME280;62589;12.568;99.958;2023-01-01T01:33:33;101510.41;;;32.22;40.83
74230;BME280;62589;12.568;99.958;2023-01-01T01:36:02;101520.97;;;32.32;40.46
74230;BME280;62589;12.568;99.958;2023-01-01T01:38:28;101516.72;;;32.38;40.31
74230;BME280;62589;12.568;99.958;2023-01-01T01:40:55;101515.31;;;32.48;39.64
74230;BME280;62589;12.568;99.958;2023-01-01T01:43:49;101517.78;;;32.53;39.84
74230;BME280;62589;12.568;99.958;2023-01-01T01:46:13;101518.41;;;32.66;39.87
74230;BME280;62589;12.568;99.958;2023-01-01T01:48:44;101526.19;;;32.76;39.30
74230;BME280;62589;12.568;99.958;2023-01-01T01:51:15;101526.69;;;32.82;39.34
74230;BME280;62589;12.568;99.958;2023-01-01T01:53:47;101527.16;;;32.87;39.10
74230;BME280;62589;12.568;99.958;2023-01-01T01:56:19;101526.56;;;32.97;39.27
74230;BME280;62589;12.568;99.958;2023-01-01T01:58:46;101526.34;;;33.09;39.01
74230;BME280;62589;12.568;99.958;2023-01-01T02:01:13;101530.06;;;33.17;39.15
74230;BME280;62589;12.568;99.958;2023-01-01T02:03:52;101530.25;;;33.28;38.69
74230;BME280;62589;12.568;99.958;2023-01-01T02:06:20;101535.88;;;33.31;38.78
74230;BME280;62589;12.568;99.958;2023-01-01T02:08:48;101535.63;;;33.40;38.35
74230;BME280;62589;12.568;99.958;2023-01-01T02:11:15;101535.31;;;33.45;38.67
74230;BME280;62589;12.568;99.958;2023-01-01T02:13:41;101536.28;;;33.56;38.21
74230;BME280;62589;12.568;99.958;2023-01-01T02:19:23;101530.09;;;33.70;37.62
74230;BME280;62589;12.568;99.958;2023-01-01T02:30:26;101537.16;;;33.90;37.38
74230;BME280;62589;12.568;99.958;2023-01-01T02:33:01;101528.91;;;33.97;37.63
74230;BME280;62589;12.568;99.958;2023-01-01T02:35:34;101533.03;;;34.07;37.04
74230;BME280;62589;12.568;99.958;2023-01-01T02:38:23;101533.06;;;34.10;37.56
74230;BME280;62589;12.568;99.958;2023-01-01T02:40:54;101541.13;;;34.19;37.57
74230;BME280;62589;12.568;99.958;2023-01-01T02:43:22;101545.09;;;34.18;37.10
74230;BME280;62589;12.568;99.958;2023-01-01T02:45:49;101542.09;;;34.30;37.32
74230;BME280;62589;12.568;99.958;2023-01-01T02:54:07;101543.50;;;34.51;36.66
74230;BME280;62589;12.568;99.958;2023-01-01T02:56:45;101534.41;;;34.57;36.44
74230;BME280;62589;12.568;99.958;2023-01-01T03:02:30;101541.34;;;34.70;36.43
74230;BME280;62589;12.568;99.958;2023-01-01T03:05:24;101542.66;;;34.80;35.97
74230;BME280;62589;12.568;99.958;2023-01-01T03:08:17;101541.13;;;34.86;35.87
74230;BME280;62589;12.568;99.958;2023-01-01T03:10:59;101541.13;;;34.86;35.76
74230;BME280;62589;12.568;99.958;2023-01-01T03:16:35;101544.50;;;35.06;35.57
74230;BME280;62589;12.568;99.958;2023-01-01T03:19:23;101531.81;;;35.15;35.59
74230;BME280;62589;12.568;99.958;2023-01-01T03:22:05;101534.25;;;35.21;35.74
74230;BME280;62589;12.568;99.958;2023-01-01T03:30:04;101521.22;;;35.32;34.66
74230;BME280;62589;12.568;99.958;2023-01-01T03:32:38;101521.63;;;35.37;34.78
74230;BME280;62589;12.568;99.958;2023-01-01T03:35:19;101521.69;;;35.44;35.04
74230;BME280;62589;12.568;99.958;2023-01-01T03:37:49;101516.50;;;35.46;34.72
74230;BME280;62589;12.568;99.958;2023-01-01T03:40:18;101508.94;;;35.47;34.54
74230;BME280;62589;12.568;99.958;2023-01-01T03:43:10;101514.97;;;35.56;34.51
74230;BME280;62589;12.568;99.958;2023-01-01T03:45:42;101505.00;;;35.59;34.19
74230;BME280;62589;12.568;99.958;2023-01-01T03:48:11;101503.41;;;35.61;34.36
74230;BME280;62589;12.568;99.958;2023-01-01T03:53:41;101492.28;;;35.68;34.25
74230;BME280;62589;12.568;99.958;2023-01-01T03:56:32;101476.41;;;35.79;33.88
74230;BME280;62589;12.568;99.958;2023-01-01T03:59:06;101473.59;;;35.79;33.87
74230;BME280;62589;12.568;99.958;2023-01-01T04:01:45;101478.41;;;35.79;33.44
74230;BME280;62589;12.568;99.958;2023-01-01T04:04:14;101474.00;;;35.78;33.20
74230;BME280;62589;12.568;99.958;2023-01-01T04:06:41;101472.00;;;35.78;33.53
74230;BME280;62589;12.568;99.958;2023-01-01T04:09:14;101460.03;;;35.78;33.56
74230;BME280;62589;12.568;99.958;2023-01-01T04:11:44;101460.47;;;35.84;33.81
74230;BME280;62589;12.568;99.958;2023-01-01T04:14:28;101470.88;;;35.90;33.90
74230;BME280;62589;12.568;99.958;2023-01-01T04:16:56;101467.69;;;35.92;33.77
74230;BME280;62589;12.568;99.958;2023-01-01T04:19:22;101463.69;;;35.93;33.60
74230;BME280;62589;12.568;99.958;2023-01-01T04:21:49;101457.31;;;35.96;33.77
74230;BME280;62589;12.568;99.958;2023-01-01T04:24:15;101456.13;;;36.00;33.50
74230;BME280;62589;12.568;99.958;2023-01-01T04:26:42;101459.72;;;36.01;33.83
74230;BME280;62589;12.568;99.958;2023-01-01T04:29:09;101459.31;;;35.99;34.27
74230;BME280;62589;12.568;99.958;2023-01-01T04:31:36;101454.13;;;36.01;33.95
74230;BME280;62589;12.568;99.958;2023-01-01T04:34:02;101444.16;;;36.03;33.77
74230;BME280;62589;12.568;99.958;2023-01-01T04:36:28;101436.19;;;36.09;33.79
74230;BME280;62589;12.568;99.958;2023-01-01T04:38:55;101434.22;;;36.13;33.70
74230;BME280;62589;12.568;99.958;2023-01-01T04:41:21;101427.03;;;36.15;34.08
74230;BME280;62589;12.568;99.958;2023-01-01T04:43:48;101429.41;;;36.21;34.17
74230;BME280;62589;12.568;99.958;2023-01-01T04:46:17;101417.81;;;36.19;34.79
74230;BME280;62589;12.568;99.958;2023-01-01T04:48:45;101421.47;;;36.26;34.22
74230;BME280;62589;12.568;99.958;2023-01-01T04:51:13;101416.28;;;36.28;33.98
74230;BME280;62589;12.568;99.958;2023-01-01T04:53:39;101411.09;;;36.30;34.48
74230;BME280;62589;12.568;99.958;2023-01-01T04:56:09;101407.53;;;36.33;34.89
74230;BME280;62589;12.568;99.958;2023-01-01T04:58:38;101400.72;;;36.38;34.46
74230;BME280;62589;12.568;99.958;2023-01-01T05:01:05;101403.91;;;36.43;34.64
74230;BME280;62589;12.568;99.958;2023-01-01T05:03:32;101395.94;;;36.45;34.38
74230;BME280;62589;12.568;99.958;2023-01-01T05:06:07;101390.34;;;36.45;33.53
74230;BME280;62589;12.568;99.958;2023-01-01T05:08:37;101387.94;;;36.44;33.89
74230;BME280;62589;12.568;99.958;2023-01-01T05:11:07;101379.16;;;36.45;34.32
74230;BME280;62589;12.568;99.958;2023-01-01T05:13:35;101365.56;;;36.47;33.98
74230;BME280;62589;12.568;99.958;2023-01-01T05:16:03;101368.38;;;36.51;34.23
74230;BME280;62589;12.568;99.958;2023-01-01T05:18:29;101359.59;;;36.56;34.19
74230;BME280;62589;12.568;99.958;2023-01-01T05:21:03;101353.56;;;36.61;34.33
74230;BME280;62589;12.568;99.958;2023-01-01T05:23:31;101343.16;;;36.62;34.27
74230;BME280;62589;12.568;99.958;2023-01-01T05:25:57;101339.56;;;36.65;34.42
74230;BME280;62589;12.568;99.958;2023-01-01T05:28:24;101331.97;;;36.65;34.17
74230;BME280;62589;12.568;99.958;2023-01-01T05:30:51;101329.19;;;36.62;34.29
74230;BME280;62589;12.568;99.958;2023-01-01T05:33:18;101322.38;;;36.63;34.21
74230;BME280;62589;12.568;99.958;2023-01-01T05:35:52;101315.19;;;36.62;34.59
74230;BME280;62589;12.568;99.958;2023-01-01T05:38:19;101315.19;;;36.58;34.24
74230;BME280;62589;12.568;99.958;2023-01-01T05:40:46;101309.59;;;36.58;34.24
74230;BME280;62589;12.568;99.958;2023-01-01T05:43:12;101309.59;;;36.58;34.14
74230;BME280;62589;12.568;99.958;2023-01-01T05:45:38;101299.22;;;36.66;34.43
74230;BME280;62589;12.568;99.958;2023-01-01T05:48:05;101300.41;;;36.61;34.25
74230;BME280;62589;12.568;99.958;2023-01-01T05:50:31;101290.81;;;36.59;34.51
74230;BME280;62589;12.568;99.958;2023-01-01T05:52:58;101301.22;;;36.58;34.56
74230;BME280;62589;12.568;99.958;2023-01-01T05:55:24;101280.81;;;36.61;34.66
74230;BME280;62589;12.568;99.958;2023-01-01T05:57:51;101287.22;;;36.62;34.85
74230;BME280;62589;12.568;99.958;2023-01-01T06:00:17;101275.22;;;36.65;34.73
74230;BME280;62589;12.568;99.958;2023-01-01T06:02:43;101278.81;;;36.65;34.38
74230;BME280;62589;12.568;99.958;2023-01-01T06:05:10;101260.84;;;36.63;34.77
74230;BME280;62589;12.568;99.958;2023-01-01T06:07:36;101255.25;;;36.63;34.75
74230;BME280;62589;12.568;99.958;2023-01-01T06:10:03;101254.44;;;36.66;34.58
74230;BME280;62589;12.568;99.958;2023-01-01T06:12:29;101260.03;;;36.69;34.42
74230;BME280;62589;12.568;99.958;2023-01-01T06:14:56;101262.03;;;36.69;34.36
74230;BME280;62589;12.568;99.958;2023-01-01T06:17:22;101257.63;;;36.68;34.86
74230;BME280;62589;12.568;99.958;2023-01-01T06:19:48;101258.47;;;36.72;35.03
74230;BME280;62589;12.568;99.958;2023-01-01T06:22:15;101245.28;;;36.72;35.30
74230;BME280;62589;12.568;99.958;2023-01-01T06:24:41;101236.88;;;36.72;34.75
74230;BME280;62589;12.568;99.958;2023-01-01T06:27:08;101237.25;;;36.71;35.07
74230;BME280;62589;12.568;99.958;2023-01-01T06:29:34;101226.06;;;36.71;35.13
74230;BME280;62589;12.568;99.958;2023-01-01T06:32:01;101220.91;;;36.73;35.23
74230;BME280;62589;12.568;99.958;2023-01-01T06:34:27;101209.28;;;36.67;35.27
74230;BME280;62589;12.568;99.958;2023-01-01T06:36:53;101212.09;;;36.67;34.74
74230;BME280;62589;12.568;99.958;2023-01-01T06:39:20;101208.88;;;36.65;34.86
74230;BME280;62589;12.568;99.958;2023-01-01T06:41:46;101200.09;;;36.67;34.48
74230;BME280;62589;12.568;99.958;2023-01-01T06:44:13;101198.50;;;36.62;34.71
74230;BME280;62589;12.568;99.958;2023-01-01T06:46:39;101187.31;;;36.66;34.68
74230;BME280;62589;12.568;99.958;2023-01-01T06:49:09;101182.53;;;36.59;34.97
74230;BME280;62589;12.568;99.958;2023-01-01T06:51:39;101171.72;;;36.61;35.27
74230;BME280;62589;12.568;99.958;2023-01-01T06:54:06;101171.72;;;36.61;35.44
74230;BME280;62589;12.568;99.958;2023-01-01T06:56:33;101168.13;;;36.61;35.06
74230;BME280;62589;12.568;99.958;2023-01-01T06:59:00;101157.75;;;36.61;35.30
74230;BME280;62589;12.568;99.958;2023-01-01T07:01:29;101159.75;;;36.61;35.39
74230;BME280;62589;12.568;99.958;2023-01-01T07:04:04;101160.97;;;36.56;35.33
74230;BME280;62589;12.568;99.958;2023-01-01T07:06:31;101160.19;;;36.56;35.36
74230;BME280;62589;12.568;99.958;2023-01-01T07:08:58;101150.16;;;36.58;35.33
74230;BME280;62589;12.568;99.958;2023-01-01T07:11:25;101144.59;;;36.55;35.39
74230;BME280;62589;12.568;99.958;2023-01-01T07:13:52;101148.63;;;36.50;35.21
74230;BME280;62589;12.568;99.958;2023-01-01T07:16:19;101133.03;;;36.53;35.35
74230;BME280;62589;12.568;99.958;2023-01-01T07:18:45;101138.63;;;36.42;34.61
74230;BME280;62589;12.568;99.958;2023-01-01T07:21:32;101129.84;;;36.43;35.07
74230;BME280;62589;12.568;99.958;2023-01-01T07:24:01;101122.25;;;36.40;34.93
74230;BME280;62589;12.568;99.958;2023-01-01T07:26:29;101131.91;;;36.36;34.93
74230;BME280;62589;12.568;99.958;2023-01-01T07:28:56;101127.91;;;36.33;34.97
74230;BME280;62589;12.568;99.958;2023-01-01T07:31:23;101125.13;;;36.30;35.11
74230;BME280;62589;12.568;99.958;2023-01-01T07:33:49;101115.53;;;36.27;34.80
74230;BME280;62589;12.568;99.958;2023-01-01T07:36:16;101115.94;;;36.26;34.47
74230;BME280;62589;12.568;99.958;2023-01-01T07:38:42;101112.34;;;36.25;34.45
74230;BME280;62589;12.568;99.958;2023-01-01T07:41:09;101106.75;;;36.25;34.42
74230;BME280;62589;12.568;99.958;2023-01-01T07:43:35;101100.34;;;36.28;34.53
74230;BME280;62589;12.568;99.958;2023-01-01T07:46:02;101094.34;;;36.30;34.80
74230;BME280;62589;12.568;99.958;2023-01-01T07:48:29;101093.97;;;36.28;34.71
74230;BME280;62589;12.568;99.958;2023-01-01T07:50:55;101082.38;;;36.29;34.48
74230;BME280;62589;12.568;99.958;2023-01-01T07:53:21;101081.56;;;36.29;34.56
74230;BME280;62589;12.568;99.958;2023-01-01T07:55:48;101074.78;;;36.30;34.64
74230;BME280;62589;12.568;99.958;2023-01-01T07:58:14;101079.97;;;36.31;34.86
74230;BME280;62589;12.568;99.958;2023-01-01T08:00:45;101075.59;;;36.30;34.70
74230;BME280;62589;12.568;99.958;2023-01-01T08:03:12;101067.59;;;36.32;35.11
74230;BME280;62589;12.568;99.958;2023-01-01T08:05:39;101068.78;;;36.35;35.06
74230;BME280;62589;12.568;99.958;2023-01-01T08:08:05;101065.59;;;36.33;34.92
74230;BME280;62589;12.568;99.958;2023-01-01T08:10:32;101065.19;;;36.34;34.83
74230;BME280;62589;12.568;99.958;2023-01-01T08:12:59;101056.41;;;36.32;34.96
74230;BME280;62589;12.568;99.958;2023-01-01T08:15:26;101053.22;;;36.30;34.89
74230;BME280;62589;12.568;99.958;2023-01-01T08:17:57;101054.41;;;36.29;34.44
74230;BME280;62589;12.568;99.958;2023-01-01T08:20:25;101056.00;;;36.30;34.81
74230;BME280;62589;12.568;99.958;2023-01-01T08:22:51;101049.25;;;36.24;34.87
74230;BME280;62589;12.568;99.958;2023-01-01T08:25:18;101042.03;;;36.27;35.04
74230;BME280;62589;12.568;99.958;2023-01-01T08:27:44;101044.44;;;36.25;35.19
74230;BME280;62589;12.568;99.958;2023-01-01T08:30:12;101037.22;;;36.24;35.07
74230;BME280;62589;12.568;99.958;2023-01-01T08:32:39;101038.84;;;36.25;34.99
74230;BME280;62589;12.568;99.958;2023-01-01T08:35:06;101033.25;;;36.21;34.53
74230;BME280;62589;12.568;99.958;2023-01-01T08:37:32;101030.84;;;36.23;33.72
74230;BME280;62589;12.568;99.958;2023-01-01T08:39:59;101023.66;;;36.19;33.58
74230;BME280;62589;12.568;99.958;2023-01-01T08:42:25;101019.72;;;36.16;32.28
74230;BME280;62589;12.568;99.958;2023-01-01T08:44:52;101018.13;;;36.11;32.86
74230;BME280;62589;12.568;99.958;2023-01-01T08:47:20;101017.31;;;36.11;32.99
74230;BME280;62589;12.568;99.958;2023-01-01T08:49:47;101010.94;;;36.10;33.40
74230;BME280;62589;12.568;99.958;2023-01-01T08:52:13;101006.16;;;36.07;32.92
74230;BME280;62589;12.568;99.958;2023-01-01T08:54:40;101007.75;;;36.05;32.85
74230;BME280;62589;12.568;99.958;2023-01-01T08:57:07;101005.78;;;36.02;33.42
74230;BME280;62589;12.568;99.958;2023-01-01T08:59:33;100999.41;;;35.98;33.55
74230;BME280;62589;12.568;99.958;2023-01-01T09:01:59;100999.78;;;35.96;33.55
74230;BME280;62589;12.568;99.958;2023-01-01T09:04:26;100999.84;;;35.93;32.92
74230;BME280;62589;12.568;99.958;2023-01-01T09:06:52;100994.25;;;35.93;32.58
74230;BME280;62589;12.568;99.958;2023-01-01T09:09:19;100992.66;;;35.92;32.91
74230;BME280;62589;12.568;99.958;2023-01-01T09:11:55;100987.06;;;35.88;32.57
74230;BME280;62589;12.568;99.958;2023-01-01T09:14:24;100989.47;;;35.86;32.69
74230;BME280;62589;12.568;99.958;2023-01-01T09:16:50;100993.88;;;35.84;33.38
74230;BME280;62589;12.568;99.958;2023-01-01T09:19:16;100991.88;;;35.80;33.81
74230;BME280;62589;12.568;99.958;2023-01-01T09:21:43;100996.66;;;35.76;33.86
74230;BME280;62589;12.568;99.958;2023-01-01T09:24:09;100986.31;;;35.73;33.79
74230;BME280;62589;12.568;99.958;2023-01-01T09:26:36;100992.28;;;35.68;34.44
74230;BME280;62589;12.568;99.958;2023-01-01T09:29:02;100993.50;;;35.67;35.12
74230;BME280;62589;12.568;99.958;2023-01-01T09:31:29;100983.13;;;35.64;35.18
74230;BME280;62589;12.568;99.958;2023-01-01T09:33:55;100997.88;;;35.61;35.50
74230;BME280;62589;12.568;99.958;2023-01-01T09:36:30;100988.72;;;35.57;35.58
74230;BME280;62589;12.568;99.958;2023-01-01T09:38:58;100990.34;;;35.51;35.79
74230;BME280;62589;12.568;99.958;2023-01-01T09:41:54;100994.72;;;35.52;35.92
74230;BME280;62589;12.568;99.958;2023-01-01T09:47:41;100999.50;;;35.48;35.85
74230;BME280;62589;12.568;99.958;2023-01-01T09:50:17;100998.31;;;35.38;36.11
74230;BME280;62589;12.568;99.958;2023-01-01T09:52:54;101007.13;;;35.33;35.88
74230;BME280;62589;12.568;99.958;2023-01-01T09:55:33;101005.91;;;35.31;35.98
74230;BME280;62589;12.568;99.958;2023-01-01T09:58:03;101003.13;;;35.31;36.02
74230;BME280;62589;12.568;99.958;2023-01-01T10:00:32;101009.50;;;35.28;36.14
74230;BME280;62589;12.568;99.958;2023-01-01T10:03:18;101019.03;;;35.27;36.08
74230;BME280;62589;12.568;99.958;2023-01-01T10:05:57;101011.88;;;35.22;36.09
74230;BME280;62589;12.568;99.958;2023-01-01T10:08:36;101020.63;;;35.21;36.10
74230;BME280;62589;12.568;99.958;2023-01-01T10:11:23;101029.00;;;35.17;35.76
74230;BME280;62589;12.568;99.958;2023-01-01T10:13:52;101024.63;;;35.12;35.67
74230;BME280;62589;12.568;99.958;2023-01-01T10:16:41;101033.00;;;35.12;35.36
74230;BME280;62589;12.568;99.958;2023-01-01T10:19:32;101038.19;;;35.07;34.94
74230;BME280;62589;12.568;99.958;2023-01-01T10:22:06;101038.97;;;34.97;35.25
74230;BME280;62589;12.568;99.958;2023-01-01T10:25:02;101031.00;;;34.92;35.69
74230;BME280;62589;12.568;99.958;2023-01-01T10:27:44;101036.97;;;34.87;35.44
74230;BME280;62589;12.568;99.958;2023-01-01T10:30:23;101040.53;;;34.80;35.29
74230;BME280;62589;12.568;99.958;2023-01-01T10:32:55;101038.09;;;34.75;35.30
74230;BME280;62589;12.568;99.958;2023-01-01T10:35:32;101029.72;;;34.68;35.22
74230;BME280;62589;12.568;99.958;2023-01-01T10:38:00;101047.22;;;34.61;35.62
74230;BME280;62589;12.568;99.958;2023-01-01T10:40:29;101041.25;;;34.59;35.67
74230;BME280;62589;12.568;99.958;2023-01-01T10:43:00;101046.00;;;34.52;35.24
74230;BME280;62589;12.568;99.958;2023-01-01T10:45:40;101050.38;;;34.45;35.51
74230;BME280;62589;12.568;99.958;2023-01-01T10:48:13;101057.13;;;34.41;35.48
74230;BME280;62589;12.568;99.958;2023-01-01T10:51:06;101055.91;;;34.38;35.75
74230;BME280;62589;12.568;99.958;2023-01-01T10:53:37;101068.66;;;34.36;36.04
74230;BME280;62589;12.568;99.958;2023-01-01T10:56:13;101066.22;;;34.31;36.06
74230;BME280;62589;12.568;99.958;2023-01-01T10:58:52;101068.22;;;34.30;35.68
74230;BME280;62589;12.568;99.958;2023-01-01T11:01:40;101065.03;;;34.28;35.67
74230;BME280;62589;12.568;99.958;2023-01-01T11:04:26;101067.41;;;34.26;35.73
74230;BME280;62589;12.568;99.958;2023-01-01T11:06:52;101083.28;;;34.22;35.61
74230;BME280;62589;12.568;99.958;2023-01-01T11:09:23;101078.47;;;34.16;35.38
74230;BME280;62589;12.568;99.958;2023-01-01T11:12:00;101079.66;;;34.14;35.24
74230;BME280;62589;12.568;99.958;2023-01-01T11:17:29;101089.59;;;34.08;35.28
74230;BME280;62589;12.568;99.958;2023-01-01T11:20:00;101089.56;;;34.05;34.78
74230;BME280;62589;12.568;99.958;2023-01-01T11:22:41;101089.56;;;34.01;35.00
74230;BME280;62589;12.568;99.958;2023-01-01T11:25:23;101093.09;;;33.98;34.77
74230;BME280;62589;12.568;99.958;2023-01-01T11:33:49;101114.13;;;33.89;35.33
74230;BME280;62589;12.568;99.958;2023-01-01T11:36:28;101110.16;;;33.86;35.71
74230;BME280;62589;12.568;99.958;2023-01-01T11:41:48;101124.00;;;33.79;36.35
74230;BME280;62589;12.568;99.958;2023-01-01T11:44:38;101129.97;;;33.77;36.39
74230;BME280;62589;12.568;99.958;2023-01-01T11:47:06;101124.34;;;33.74;37.10
74230;BME280;62589;12.568;99.958;2023-01-01T11:49:46;101130.25;;;33.69;36.67
74230;BME280;62589;12.568;99.958;2023-01-01T11:52:39;101137.44;;;33.70;36.85
74230;BME280;62589;12.568;99.958;2023-01-01T11:58:29;101153.72;;;33.68;36.33
74230;BME280;62589;12.568;99.958;2023-01-01T12:01:31;101150.50;;;33.62;36.44
74230;BME280;62589;12.568;99.958;2023-01-01T12:04:06;101162.00;;;33.57;37.21
74230;BME280;62589;12.568;99.958;2023-01-01T12:12:27;101181.78;;;33.49;36.67
74230;BME280;62589;12.568;99.958;2023-01-01T12:15:06;101185.75;;;33.47;36.84
74230;BME280;62589;12.568;99.958;2023-01-01T12:17:42;101192.50;;;33.43;36.57
74230;BME280;62589;12.568;99.958;2023-01-01T12:20:30;101189.28;;;33.41;36.52
74230;BME280;62589;12.568;99.958;2023-01-01T12:22:58;101201.94;;;33.35;36.95
74230;BME280;62589;12.568;99.958;2023-01-01T12:25:35;101209.44;;;33.31;36.93
74230;BME280;62589;12.568;99.958;2023-01-01T12:28:29;101217.41;;;33.32;36.97
74230;BME280;62589;12.568;99.958;2023-01-01T12:31:26;101217.38;;;33.29;36.95
74230;BME280;62589;12.568;99.958;2023-01-01T12:34:18;101228.88;;;33.27;36.64
74230;BME280;62589;12.568;99.958;2023-01-01T12:43:02;101237.09;;;33.17;36.21
74230;BME280;62589;12.568;99.958;2023-01-01T12:48:38;101244.13;;;33.07;36.09
74230;BME280;62589;12.568;99.958;2023-01-01T12:57:13;101260.75;;;33.00;35.98
74230;BME280;62589;12.568;99.958;2023-01-01T12:59:46;101272.13;;;32.91;36.22
74230;BME280;62589;12.568;99.958;2023-01-01T13:02:34;101276.53;;;32.92;35.73
74230;BME280;62589;12.568;99.958;2023-01-01T13:05:14;101287.16;;;32.87;36.96
74230;BME280;62589;12.568;99.958;2023-01-01T13:07:47;101282.75;;;32.82;36.90
74230;BME280;62589;12.568;99.958;2023-01-01T13:10:28;101289.88;;;32.80;37.08
74230;BME280;62589;12.568;99.958;2023-01-01T13:12:56;101295.38;;;32.76;36.64
74230;BME280;62589;12.568;99.958;2023-01-01T13:15:50;101305.59;;;32.72;37.02
74230;BME280;62589;12.568;99.958;2023-01-01T13:18:22;101311.47;;;32.67;37.38
74230;BME280;62589;12.568;99.958;2023-01-01T13:21:20;101305.16;;;32.70;37.29
74230;BME280;62589;12.568;99.958;2023-01-01T13:23:48;101319.00;;;32.63;36.80
74230;BME280;62589;12.568;99.958;2023-01-01T13:26:34;101325.72;;;32.62;37.06
74230;BME280;62589;12.568;99.958;2023-01-01T13:29:24;101329.25;;;32.59;37.12
74230;BME280;62589;12.568;99.958;2023-01-01T13:32:02;101321.22;;;32.54;36.73
74230;BME280;62589;12.568;99.958;2023-01-01T13:34:41;101336.22;;;32.49;36.92
74230;BME280;62589;12.568;99.958;2023-01-01T13:37:28;101340.63;;;32.50;37.45
74230;BME280;62589;12.568;99.958;2023-01-01T13:40:00;101350.03;;;32.42;37.65
74230;BME280;62589;12.568;99.958;2023-01-01T13:45:34;101359.41;;;32.34;37.02
74230;BME280;62589;12.568;99.958;2023-01-01T13:48:27;101356.25;;;32.35;37.13
74230;BME280;62589;12.568;99.958;2023-01-01T13:56:52;101373.97;;;32.27;36.83
74230;BME280;62589;12.568;99.958;2023-01-01T14:02:35;101385.31;;;32.19;37.24
74230;BME280;62589;12.568;99.958;2023-01-01T14:05:17;101378.88;;;32.15;37.52
74230;BME280;62589;12.568;99.958;2023-01-01T14:07:50;101380.41;;;32.12;37.67
74230;BME280;62589;12.568;99.958;2023-01-01T14:10:36;101379.25;;;32.13;37.29
74230;BME280;62589;12.568;99.958;2023-01-01T14:13:20;101386.72;;;32.09;37.33
74230;BME280;62589;12.568;99.958;2023-01-01T14:15:56;101386.56;;;32.02;37.38
74230;BME280;62589;12.568;99.958;2023-01-01T14:18:36;101380.19;;;32.01;36.71
74230;BME280;62589;12.568;99.958;2023-01-01T14:21:10;101378.91;;;31.95;36.93
74230;BME280;62589;12.568;99.958;2023-01-01T14:23:40;101383.94;;;32.09;36.67
74230;BME280;62589;12.568;99.958;2023-01-01T14:26:20;101384.47;;;31.95;37.03
74230;BME280;62589;12.568;99.958;2023-01-01T14:28:47;101389.59;;;31.93;37.32